Time;durP1;ratioP1;P1;durP2;ratioP2;P2;SDS_P1;SDS_P2;PMS_P1;PMS_P2;Temp;Humidity;BMP_temperature;BMP_pressure;BME280_temperature;BME280_humidity;BME280_pressure;Samples;Min_cycle;Max_cycle;Signal;HPM_P1;HPM_P2
2022/10/26 10:10:21;;;;;;;;;;;23.70;53.00;;;;;;5100231;28;20744;-72
2022/10/26 10:12:51;;;;;;;;;;;23.70;52.80;;;;;;5071423;28;19935;-73
2022/10/26 10:15:24;;;;;;;;;;;23.70;52.30;;;;;;5089139;28;19922;-73
2022/10/26 10:17:56;;;;;;;;;;;23.70;52.40;;;;;;5071803;28;19908;-73
2022/10/26 10:20:30;;;;;;;;;;;23.60;52.50;;;;;;5096151;28;19912;-73
2022/10/26 10:22:58;;;;;;;;;;;23.60;51.50;;;;;;5081740;28;19916;-74
2022/10/26 10:25:44;;;;;;;;;;;23.60;51.60;;;;;;5091557;28;19912;-75
2022/10/26 10:28:26;;;;;;;;;;;23.60;51.90;;;;;;5109549;28;20376;-77
2022/10/26 10:30:54;;;;;;;;;;;23.60;51.70;;;;;;5099000;28;19916;-79
2022/10/26 10:33:21;;;;;;;;;;;23.60;50.70;;;;;;5109872;28;19920;-74
2022/10/26 10:35:49;;;;;;;;;;;23.60;50.60;;;;;;5093676;28;19919;-74
2022/10/26 10:38:19;;;;;;;;;;;23.60;50.60;;;;;;5086632;28;20254;-73
2022/10/26 10:40:49;;;;;;;;;;;23.60;50.70;;;;;;5082589;28;19912;-72
2022/10/26 10:43:16;;;;;;;;;;;23.50;51.20;;;;;;5077668;28;19931;-72
2022/10/26 10:45:50;;;;;;;;;;;23.50;51.10;;;;;;5078404;28;19904;-72
2022/10/26 10:48:20;;;;;;;;;;;23.50;51.20;;;;;;5083953;28;19908;-72
2022/10/26 10:50:56;;;;;;;;;;;23.50;51.00;;;;;;5097681;28;19912;-72
2022/10/26 10:53:28;;;;;;;;;;;23.50;51.00;;;;;;5094145;28;19947;-72
2022/10/26 10:55:58;;;;;;;;;;;23.50;51.00;;;;;;5079697;28;19920;-73
2022/10/26 10:58:37;;;;;;;;;;;23.40;51.30;;;;;;5089086;28;19963;-71
2022/10/26 11:01:04;;;;;;;;;;;23.40;51.40;;;;;;5102324;28;19918;-72
2022/10/26 11:03:49;;;;;;;;;;;23.40;51.50;;;;;;5077303;28;19912;-73
2022/10/26 11:06:16;;;;;;;;;;;23.40;51.60;;;;;;5102731;28;19912;-73
2022/10/26 11:08:49;;;;;;;;;;;23.30;51.70;;;;;;5077463;28;19908;-73
2022/10/26 11:11:20;;;;;;;;;;;23.30;52.00;;;;;;5076424;28;19927;-75
2022/10/26 11:13:55;;;;;;;;;;;23.30;51.70;;;;;;5095958;28;19962;-73
2022/10/26 11:16:51;;;;;;;;;;;23.30;51.80;;;;;;5095675;28;19908;-74
2022/10/26 11:19:26;;;;;;;;;;;23.30;51.50;;;;;;5079357;28;19917;-77
2022/10/26 11:21:53;;;;;;;;;;;23.30;52.10;;;;;;5106812;28;20373;-83
2022/10/26 11:24:26;;;;;;;;;;;23.30;52.20;;;;;;5113352;28;19931;-78
2022/10/26 11:27:02;;;;;;;;;;;23.20;52.30;;;;;;5113398;28;19908;-79
2022/10/26 11:29:40;;;;;;;;;;;23.20;52.10;;;;;;5105269;28;19973;-78
2022/10/26 11:32:15;;;;;;;;;;;23.20;52.50;;;;;;5100432;28;19923;-78
2022/10/26 11:34:44;;;;;;;;;;;23.20;52.60;;;;;;5066843;28;20254;-76
2022/10/26 11:37:17;;;;;;;;;;;23.20;52.60;;;;;;5099145;28;19924;-77
2022/10/26 11:39:45;;;;;;;;;;;23.10;52.80;;;;;;5054821;28;19916;-77
2022/10/26 11:42:17;;;;;;;;;;;23.00;52.60;;;;;;5057149;28;20351;-76
2022/10/26 11:44:47;;;;;;;;;;;23.00;52.80;;;;;;5092909;28;19908;-76
2022/10/26 11:47:43;;;;;;;;;;;23.00;52.80;;;;;;5074065;28;20001;-75
2022/10/26 11:50:22;;;;;;;;;;;23.00;52.90;;;;;;5074136;28;20394;-75
2022/10/26 11:52:52;;;;;;;;;;;23.00;53.40;;;;;;5074596;28;19927;-75
2022/10/26 11:55:18;;;;;;;;;;;22.90;53.50;;;;;;5092380;28;19933;-74
2022/10/26 11:57:48;;;;;;;;;;;22.90;53.80;;;;;;5074507;28;20359;-73
2022/10/26 12:00:19;;;;;;;;;;;22.90;54.00;;;;;;5090697;28;19955;-73
2022/10/26 12:02:50;;;;;;;;;;;22.80;54.20;;;;;;5083815;28;19916;-73
2022/10/26 12:05:19;;;;;;;;;;;22.80;54.20;;;;;;5073777;28;19908;-73
2022/10/26 12:08:12;;;;;;;;;;;22.80;54.20;;;;;;5092395;28;19937;-73
2022/10/26 12:10:39;;;;;;;;;;;22.80;54.40;;;;;;5078484;28;19935;-73
2022/10/26 12:13:06;;;;;;;;;;;22.80;54.60;;;;;;5073802;28;20039;-73
2022/10/26 12:15:34;;;;;;;;;;;22.70;54.70;;;;;;5092236;28;19969;-73
2022/10/26 12:18:20;;;;;;;;;;;22.70;54.90;;;;;;5071615;28;19947;-73
2022/10/26 12:20:52;;;;;;;;;;;22.70;55.10;;;;;;5071124;28;20431;-73
2022/10/26 12:23:18;;;;;;;;;;;22.60;55.20;;;;;;5085185;28;20433;-73
2022/10/26 12:25:45;;;;;;;;;;;22.60;55.40;;;;;;5112107;28;20336;-73
2022/10/26 12:28:44;;;;;;;;;;;22.60;55.60;;;;;;5104550;28;19958;-73
2022/10/26 12:31:29;;;;;;;;;;;22.50;56.00;;;;;;5044508;28;20483;-73
2022/10/26 12:33:55;;;;;;;;;;;22.50;56.30;;;;;;5110156;28;20267;-80
2022/10/26 12:36:40;;;;;;;;;;;22.50;56.10;;;;;;5111914;28;19918;-78
2022/10/26 12:39:15;;;;;;;;;;;22.50;55.70;;;;;;5111894;28;20428;-75
2022/10/26 12:41:43;;;;;;;;;;;22.40;55.90;;;;;;5080333;28;20262;-75
2022/10/26 12:44:29;;;;;;;;;;;22.50;56.00;;;;;;5083971;28;19916;-75
2022/10/26 12:46:55;;;;;;;;;;;22.40;56.20;;;;;;5093688;28;19960;-74
2022/10/26 12:49:40;;;;;;;;;;;22.40;56.20;;;;;;5109625;28;19956;-74
2022/10/26 12:52:17;;;;;;;;;;;22.40;56.00;;;;;;5091827;28;20421;-74
2022/10/26 12:54:45;;;;;;;;;;;22.40;56.60;;;;;;5073771;28;19963;-74
2022/10/26 12:57:17;;;;;;;;;;;22.40;56.80;;;;;;5073104;28;19916;-74
2022/10/26 12:59:55;;;;;;;;;;;22.30;57.60;;;;;;5068408;28;19916;-74
2022/10/26 13:02:27;;;;;;;;;;;22.30;57.60;;;;;;5064306;28;19911;-76
2022/10/26 13:04:56;;;;;;;;;;;22.30;58.10;;;;;;5075084;28;19913;-76
2022/10/26 13:07:27;;;;;;;;;;;22.30;57.70;;;;;;5085968;28;20344;-74
2022/10/26 13:09:57;;;;;;;;;;;22.20;58.30;;;;;;5072748;28;20374;-74
2022/10/26 13:12:23;;;;;;;;;;;22.20;59.00;;;;;;5090285;28;19955;-75
2022/10/26 13:14:58;;;;;;;;;;;22.20;58.70;;;;;;5075518;28;19947;-74
2022/10/26 13:17:28;;;;;;;;;;;22.10;59.20;;;;;;5074968;28;20322;-74
2022/10/26 13:19:55;;;;;;;;;;;22.10;59.20;;;;;;5076808;28;19916;-74
2022/10/26 13:22:23;;;;;;;;;;;22.10;59.80;;;;;;5093004;28;19915;-74
2022/10/26 13:24:54;;;;;;;;;;;22.00;59.50;;;;;;5095860;28;19908;-74
2022/10/26 13:27:43;;;;;;;;;;;22.00;60.00;;;;;;5095527;28;19957;-74
2022/10/26 13:30:16;;;;;;;;;;;22.00;61.60;;;;;;5094617;28;19916;-74
2022/10/26 13:32:42;;;;;;;;;;;22.00;60.40;;;;;;5074992;28;20294;-74
2022/10/26 13:35:11;;;;;;;;;;;22.00;60.20;;;;;;5086006;28;19915;-74
2022/10/26 13:37:39;;;;;;;;;;;21.90;60.30;;;;;;5095367;28;19907;-74
2022/10/26 13:40:06;;;;;;;;;;;21.90;60.40;;;;;;5087117;28;19919;-74
2022/10/26 13:42:36;;;;;;;;;;;21.90;60.50;;;;;;5108719;28;19907;-73
2022/10/26 13:45:11;;;;;;;;;;;21.90;60.60;;;;;;5095653;28;19918;-73
2022/10/26 13:47:42;;;;;;;;;;;21.80;61.40;;;;;;5096187;28;19912;-74
2022/10/26 13:50:11;;;;;;;;;;;21.90;60.40;;;;;;5082532;28;19924;-73
2022/10/26 13:52:47;;;;;;;;;;;21.90;60.80;;;;;;5069562;28;19923;-73
2022/10/26 13:55:13;;;;;;;;;;;21.90;61.10;;;;;;5095262;28;19911;-73
2022/10/26 13:57:43;;;;;;;;;;;21.90;60.50;;;;;;5113389;28;20223;-73
2022/10/26 14:00:16;;;;;;;;;;;22.00;61.80;;;;;;5105029;28;20293;-74
2022/10/26 14:02:43;;;;;;;;;;;21.90;61.30;;;;;;5084239;28;19913;-73
2022/10/26 14:05:12;;;;;;;;;;;21.90;62.10;;;;;;5112267;28;20386;-73
2022/10/26 14:07:38;;;;;;;;;;;21.90;62.10;;;;;;5113033;28;19959;-74
2022/10/26 14:10:05;;;;;;;;;;;21.80;61.80;;;;;;5104297;28;19918;-72
2022/10/26 14:12:32;;;;;;;;;;;21.80;62.40;;;;;;5076158;28;19921;-73
2022/10/26 14:15:07;;;;;;;;;;;21.80;61.90;;;;;;5073189;28;19912;-74
2022/10/26 14:17:34;;;;;;;;;;;21.80;62.70;;;;;;5090572;28;20052;-74
2022/10/26 14:20:01;;;;;;;;;;;21.80;63.30;;;;;;5110657;28;19915;-74
2022/10/26 14:22:28;;;;;;;;;;;21.80;63.10;;;;;;5109804;28;20593;-73
2022/10/26 14:24:56;;;;;;;;;;;21.70;64.00;;;;;;5103224;28;20350;-73
2022/10/26 14:27:23;;;;;;;;;;;21.70;63.30;;;;;;5094821;28;19914;-73
2022/10/26 14:29:53;;;;;;;;;;;21.70;63.30;;;;;;5084280;28;19920;-73
2022/10/26 14:32:32;;;;;;;;;;;21.70;64.20;;;;;;5045982;28;19931;-73
2022/10/26 14:34:59;;;;;;;;;;;21.70;64.50;;;;;;5090963;28;19908;-73
2022/10/26 14:37:35;;;;;;;;;;;21.70;64.10;;;;;;5094382;28;20315;-73
2022/10/26 14:40:02;;;;;;;;;;;21.60;64.20;;;;;;5105503;28;19974;-73
2022/10/26 14:42:30;;;;;;;;;;;21.60;64.40;;;;;;5107257;28;20422;-73
2022/10/26 14:44:56;;;;;;;;;;;21.60;64.70;;;;;;5094685;28;19908;-73
2022/10/26 14:47:24;;;;;;;;;;;21.60;65.00;;;;;;5094773;28;19908;-73
2022/10/26 14:49:50;;;;;;;;;;;21.50;64.40;;;;;;5069583;28;20361;-73
2022/10/26 14:52:24;;;;;;;;;;;21.50;64.90;;;;;;5065906;28;20364;-73
2022/10/26 14:54:57;;;;;;;;;;;21.50;64.50;;;;;;5110953;28;19908;-73
2022/10/26 14:57:42;;;;;;;;;;;21.50;65.50;;;;;;5094365;28;19912;-73
2022/10/26 15:00:12;;;;;;;;;;;21.40;64.40;;;;;;5081449;28;19958;-73
2022/10/26 15:02:39;;;;;;;;;;;21.40;65.10;;;;;;5112705;28;19907;-73
2022/10/26 15:05:20;;;;;;;;;;;21.40;65.00;;;;;;5112281;28;19908;-73
2022/10/26 15:07:47;;;;;;;;;;;21.40;64.60;;;;;;5100501;28;19995;-73
2022/10/26 15:10:32;;;;;;;;;;;21.40;65.40;;;;;;5070179;28;19923;-73
2022/10/26 15:12:58;;;;;;;;;;;21.40;66.20;;;;;;5106082;28;20016;-73
2022/10/26 15:15:25;;;;;;;;;;;21.30;64.90;;;;;;5094258;28;20358;-73
2022/10/26 15:17:53;;;;;;;;;;;21.30;66.00;;;;;;5091411;28;19912;-73
2022/10/26 15:20:23;;;;;;;;;;;21.30;65.40;;;;;;5065859;28;20468;-73
2022/10/26 15:22:59;;;;;;;;;;;21.20;65.40;;;;;;5095740;28;20010;-73
2022/10/26 15:25:27;;;;;;;;;;;21.20;65.40;;;;;;5116355;28;19915;-73
2022/10/26 15:27:53;;;;;;;;;;;21.10;66.10;;;;;;5095299;28;20376;-73
2022/10/26 15:30:24;;;;;;;;;;;21.00;66.60;;;;;;5076091;28;19970;-73
2022/10/26 15:32:51;;;;;;;;;;;21.00;67.30;;;;;;5095786;28;19924;-73
2022/10/26 15:35:28;;;;;;;;;;;20.90;67.80;;;;;;5079844;28;19912;-73
2022/10/26 15:37:55;;;;;;;;;;;20.90;67.10;;;;;;5093097;28;19966;-73
2022/10/26 15:40:22;;;;;;;;;;;20.80;67.10;;;;;;5064462;28;19967;-73
2022/10/26 15:42:50;;;;;;;;;;;20.80;68.30;;;;;;5077359;28;20345;-73
2022/10/26 15:45:16;;;;;;;;;;;20.80;67.90;;;;;;5095308;28;20284;-73
2022/10/26 15:47:43;;;;;;;;;;;20.80;68.20;;;;;;5095235;28;20268;-73
2022/10/26 15:50:13;;;;;;;;;;;20.80;67.40;;;;;;5088642;28;20006;-74
2022/10/26 15:52:40;;;;;;;;;;;20.80;67.00;;;;;;5094798;28;20366;-73
2022/10/26 15:55:07;;;;;;;;;;;20.80;67.00;;;;;;5095079;28;20320;-73
2022/10/26 15:57:34;;;;;;;;;;;20.80;67.30;;;;;;5094951;28;20277;-73
2022/10/26 16:00:00;;;;;;;;;;;20.70;67.10;;;;;;5093293;28;19916;-73
2022/10/26 16:02:27;;;;;;;;;;;20.70;67.50;;;;;;5076532;28;19912;-73
2022/10/26 16:04:54;;;;;;;;;;;20.60;67.00;;;;;;5077381;28;20428;-73
2022/10/26 16:07:21;;;;;;;;;;;20.60;68.10;;;;;;5094686;28;19955;-73
2022/10/26 16:09:48;;;;;;;;;;;20.70;67.50;;;;;;5076928;28;19908;-73
2022/10/26 16:12:14;;;;;;;;;;;20.60;67.50;;;;;;5071961;28;19924;-73
2022/10/26 16:14:41;;;;;;;;;;;20.70;66.80;;;;;;5066237;28;20298;-74
2022/10/26 16:17:07;;;;;;;;;;;20.70;67.70;;;;;;5064922;28;19909;-73
2022/10/26 16:19:34;;;;;;;;;;;20.70;66.30;;;;;;5055364;28;21206;-73
2022/10/26 16:22:00;;;;;;;;;;;20.60;65.60;;;;;;5045875;28;19915;-73
2022/10/26 16:24:27;;;;;;;;;;;20.70;67.60;;;;;;5074596;28;19916;-74
2022/10/26 16:26:54;;;;;;;;;;;20.70;66.00;;;;;;5074552;28;19909;-73
2022/10/26 16:29:21;;;;;;;;;;;20.60;65.60;;;;;;5072364;28;19920;-73
2022/10/26 16:31:47;;;;;;;;;;;20.60;65.70;;;;;;5059690;28;20004;-73
2022/10/26 16:34:14;;;;;;;;;;;20.60;65.60;;;;;;5074116;28;19919;-73
2022/10/26 16:36:41;;;;;;;;;;;20.60;67.00;;;;;;5073481;28;19915;-73
2022/10/26 16:39:08;;;;;;;;;;;20.50;66.30;;;;;;5072999;28;19913;-73
2022/10/26 16:41:35;;;;;;;;;;;20.50;66.80;;;;;;5055488;28;19914;-73
2022/10/26 16:44:01;;;;;;;;;;;20.50;66.70;;;;;;5074155;28;19919;-73
2022/10/26 16:46:28;;;;;;;;;;;20.50;66.70;;;;;;5073949;28;20637;-73
2022/10/26 16:48:55;;;;;;;;;;;20.40;65.70;;;;;;5073121;28;19920;-73
2022/10/26 16:51:25;;;;;;;;;;;20.40;66.40;;;;;;5068111;28;19913;-73
2022/10/26 16:53:53;;;;;;;;;;;20.40;65.50;;;;;;5073696;28;20332;-73
2022/10/26 16:56:24;;;;;;;;;;;20.40;65.20;;;;;;5074142;28;20273;-74
2022/10/26 16:58:50;;;;;;;;;;;20.30;65.10;;;;;;5072515;28;20374;-73
2022/10/26 17:01:17;;;;;;;;;;;20.30;65.00;;;;;;5055536;28;19916;-73
2022/10/26 17:03:44;;;;;;;;;;;20.30;65.70;;;;;;5048111;28;19936;-73
2022/10/26 17:06:11;;;;;;;;;;;20.30;65.20;;;;;;5073671;28;20381;-73
2022/10/26 17:08:38;;;;;;;;;;;20.30;65.20;;;;;;5072755;28;19917;-73
2022/10/26 17:11:08;;;;;;;;;;;20.30;65.70;;;;;;5072635;28;20024;-73
2022/10/26 17:13:35;;;;;;;;;;;20.30;64.90;;;;;;5093718;28;19989;-73
2022/10/26 17:16:06;;;;;;;;;;;20.30;64.50;;;;;;5093579;28;19912;-73
2022/10/26 17:18:32;;;;;;;;;;;20.20;65.30;;;;;;5066676;28;19913;-73
2022/10/26 17:20:59;;;;;;;;;;;20.30;65.50;;;;;;5061534;28;19912;-73
2022/10/26 17:23:26;;;;;;;;;;;20.20;64.90;;;;;;5089897;28;19969;-73
2022/10/26 17:25:52;;;;;;;;;;;20.20;65.00;;;;;;5093574;28;20468;-73
2022/10/26 17:28:19;;;;;;;;;;;20.10;65.10;;;;;;5078396;28;19912;-73
2022/10/26 17:30:45;;;;;;;;;;;20.10;66.10;;;;;;5084524;28;19919;-73
2022/10/26 17:33:12;;;;;;;;;;;20.10;66.20;;;;;;5092643;28;19963;-74
2022/10/26 17:35:39;;;;;;;;;;;20.10;66.90;;;;;;5092361;28;19916;-73
2022/10/26 17:38:05;;;;;;;;;;;20.00;66.20;;;;;;5088974;28;19912;-73
2022/10/26 17:40:32;;;;;;;;;;;20.00;66.10;;;;;;5091918;28;20362;-73
2022/10/26 17:42:59;;;;;;;;;;;20.00;66.40;;;;;;5092745;28;19969;-73
2022/10/26 17:45:26;;;;;;;;;;;20.00;65.40;;;;;;5063329;28;19908;-73
2022/10/26 17:47:52;;;;;;;;;;;20.10;65.90;;;;;;5093725;28;19908;-73
2022/10/26 17:50:19;;;;;;;;;;;20.10;66.00;;;;;;5093866;28;20344;-73
2022/10/26 17:52:45;;;;;;;;;;;20.10;67.10;;;;;;5093687;28;19924;-73
2022/10/26 17:55:12;;;;;;;;;;;20.10;66.00;;;;;;5093841;28;20277;-73
2022/10/26 17:57:39;;;;;;;;;;;20.00;65.40;;;;;;5094746;28;19912;-73
2022/10/26 18:00:05;;;;;;;;;;;20.10;65.90;;;;;;5097223;28;19938;-73
2022/10/26 18:02:36;;;;;;;;;;;20.10;65.90;;;;;;5095986;28;19908;-73
2022/10/26 18:05:04;;;;;;;;;;;20.10;64.80;;;;;;5098478;28;20003;-73
2022/10/26 18:07:30;;;;;;;;;;;20.00;65.70;;;;;;5090228;28;19912;-70
2022/10/26 18:09:57;;;;;;;;;;;20.00;64.90;;;;;;5091752;28;19916;-73
2022/10/26 18:12:23;;;;;;;;;;;20.00;64.80;;;;;;5089058;28;19973;-72
2022/10/26 18:14:50;;;;;;;;;;;20.00;64.70;;;;;;5092632;28;19915;-71
2022/10/26 18:17:17;;;;;;;;;;;20.00;65.20;;;;;;5092444;28;19996;-72
2022/10/26 18:19:43;;;;;;;;;;;20.00;65.10;;;;;;5091586;28;20006;-72
2022/10/26 18:22:10;;;;;;;;;;;20.00;65.20;;;;;;5091958;28;20401;-72
2022/10/26 18:24:36;;;;;;;;;;;19.90;64.90;;;;;;5092565;28;19915;-72
2022/10/26 18:27:03;;;;;;;;;;;19.90;64.60;;;;;;5090965;28;19919;-72
2022/10/26 18:29:30;;;;;;;;;;;19.90;65.20;;;;;;5084728;28;20378;-72
2022/10/26 18:31:56;;;;;;;;;;;19.90;65.30;;;;;;5091250;28;19920;-72
2022/10/26 18:34:23;;;;;;;;;;;19.90;65.70;;;;;;5092223;28;19912;-72
2022/10/26 18:36:49;;;;;;;;;;;19.90;66.70;;;;;;5092364;28;19913;-72
2022/10/26 18:39:16;;;;;;;;;;;19.90;65.90;;;;;;5092049;28;19915;-72
2022/10/26 18:41:42;;;;;;;;;;;19.80;66.20;;;;;;5092450;28;19915;-72
2022/10/26 18:44:09;;;;;;;;;;;19.90;67.50;;;;;;5092369;28;20441;-72
2022/10/26 18:46:39;;;;;;;;;;;19.80;65.50;;;;;;5092149;28;19915;-72
2022/10/26 18:49:06;;;;;;;;;;;19.80;65.80;;;;;;5074734;28;19908;-71
2022/10/26 18:51:33;;;;;;;;;;;19.80;65.90;;;;;;5092172;28;19912;-71
2022/10/26 18:54:00;;;;;;;;;;;19.80;65.80;;;;;;5092426;28;19916;-72
2022/10/26 18:56:26;;;;;;;;;;;19.80;66.10;;;;;;5092329;28;19908;-72
2022/10/26 18:58:55;;;;;;;;;;;19.80;65.80;;;;;;5095562;28;19955;-72
2022/10/26 19:01:25;;;;;;;;;;;19.80;65.50;;;;;;5061252;28;20621;-72
2022/10/26 19:03:52;;;;;;;;;;;19.80;65.90;;;;;;5096245;28;19912;-72
2022/10/26 19:06:21;;;;;;;;;;;19.90;66.80;;;;;;5078116;28;19931;-72
2022/10/26 19:08:48;;;;;;;;;;;19.90;65.20;;;;;;5095974;28;19998;-72
2022/10/26 19:11:15;;;;;;;;;;;19.90;65.30;;;;;;5095726;28;19920;-71
2022/10/26 19:13:42;;;;;;;;;;;20.00;65.00;;;;;;5096198;28;20431;-72
2022/10/26 19:16:09;;;;;;;;;;;20.00;66.40;;;;;;5096215;28;19930;-72
2022/10/26 19:18:36;;;;;;;;;;;20.00;66.00;;;;;;5096010;28;19908;-72
2022/10/26 19:21:07;;;;;;;;;;;20.00;64.90;;;;;;5077768;28;20247;-71
2022/10/26 19:23:33;;;;;;;;;;;20.00;65.00;;;;;;5096412;28;19916;-72
2022/10/26 19:26:00;;;;;;;;;;;20.10;64.50;;;;;;5095661;28;20371;-72
2022/10/26 19:28:27;;;;;;;;;;;20.20;65.10;;;;;;5095568;28;19916;-72
2022/10/26 19:30:53;;;;;;;;;;;20.20;65.60;;;;;;5077348;28;19912;-72
2022/10/26 19:33:20;;;;;;;;;;;20.30;64.80;;;;;;5077383;28;20290;-72
2022/10/26 19:35:46;;;;;;;;;;;20.30;64.60;;;;;;5077562;28;19912;-71
2022/10/26 19:38:13;;;;;;;;;;;20.30;63.90;;;;;;5077462;28;19908;-72
2022/10/26 19:40:40;;;;;;;;;;;20.40;63.80;;;;;;5095321;28;19910;-71
2022/10/26 19:43:06;;;;;;;;;;;20.40;63.80;;;;;;5095500;28;19909;-72
2022/10/26 19:45:33;;;;;;;;;;;20.50;65.00;;;;;;5076870;28;19904;-72
2022/10/26 19:48:00;;;;;;;;;;;20.50;65.20;;;;;;5077290;28;19908;-72
2022/10/26 19:50:26;;;;;;;;;;;20.50;63.70;;;;;;5095247;28;20392;-71
2022/10/26 19:52:53;;;;;;;;;;;20.60;64.20;;;;;;5095060;28;19993;-72
2022/10/26 19:55:19;;;;;;;;;;;20.60;64.30;;;;;;5095061;28;19912;-72
2022/10/26 19:57:46;;;;;;;;;;;20.60;64.50;;;;;;5095284;28;19913;-72
2022/10/26 20:00:13;;;;;;;;;;;20.70;64.90;;;;;;5095150;28;19909;-72
2022/10/26 20:02:39;;;;;;;;;;;20.70;64.80;;;;;;5095289;28;19969;-72
2022/10/26 20:05:06;;;;;;;;;;;20.70;64.40;;;;;;5094904;28;19974;-72
2022/10/26 20:07:33;;;;;;;;;;;20.70;63.90;;;;;;5095564;28;19908;-71
2022/10/26 20:10:01;;;;;;;;;;;20.70;64.20;;;;;;5094214;28;19908;-71
2022/10/26 20:12:27;;;;;;;;;;;20.80;63.20;;;;;;5094617;28;19920;-71
2022/10/26 20:14:54;;;;;;;;;;;20.80;64.40;;;;;;5094525;28;19908;-72
2022/10/26 20:17:20;;;;;;;;;;;20.80;63.90;;;;;;5094412;28;20405;-72
2022/10/26 20:19:47;;;;;;;;;;;20.80;64.10;;;;;;5094637;28;19950;-69
2022/10/26 20:22:14;;;;;;;;;;;20.80;63.80;;;;;;5094827;28;19916;-70
2022/10/26 20:24:40;;;;;;;;;;;20.90;64.20;;;;;;5094569;28;19955;-69
2022/10/26 20:27:07;;;;;;;;;;;20.90;64.00;;;;;;5094570;28;19912;-69
2022/10/26 20:29:33;;;;;;;;;;;21.00;64.80;;;;;;5094166;28;20263;-69
2022/10/26 20:32:00;;;;;;;;;;;21.00;64.20;;;;;;5094203;28;19916;-69
2022/10/26 20:34:27;;;;;;;;;;;21.00;63.90;;;;;;5094165;28;20012;-70
2022/10/26 20:36:54;;;;;;;;;;;21.10;64.20;;;;;;5094293;28;19908;-70
2022/10/26 20:39:20;;;;;;;;;;;21.10;63.30;;;;;;5094234;28;19916;-70
2022/10/26 20:41:47;;;;;;;;;;;21.20;63.50;;;;;;5094269;28;20026;-70
2022/10/26 20:44:24;;;;;;;;;;;21.20;62.90;;;;;;5094176;28;19912;-70
2022/10/26 20:46:51;;;;;;;;;;;21.30;63.70;;;;;;5076008;28;19909;-70
2022/10/26 20:49:17;;;;;;;;;;;21.30;62.90;;;;;;5093991;28;20366;-70
2022/10/26 20:51:47;;;;;;;;;;;21.30;63.50;;;;;;5093557;28;19912;-70
2022/10/26 20:54:19;;;;;;;;;;;21.30;63.40;;;;;;5094088;28;19912;-70
2022/10/26 20:56:46;;;;;;;;;;;21.30;63.50;;;;;;5076151;28;19908;-70
2022/10/26 20:59:17;;;;;;;;;;;21.40;63.50;;;;;;5075604;28;20291;-70
2022/10/26 21:01:44;;;;;;;;;;;21.50;62.60;;;;;;5093942;28;20370;-70
2022/10/26 21:04:10;;;;;;;;;;;21.50;61.80;;;;;;5093642;28;19908;-70
2022/10/26 21:06:39;;;;;;;;;;;21.50;62.00;;;;;;5093668;28;19912;-70
2022/10/26 21:09:06;;;;;;;;;;;21.60;61.90;;;;;;5093723;28;19915;-70
2022/10/26 21:11:33;;;;;;;;;;;21.60;61.00;;;;;;5093637;28;19927;-70
2022/10/26 21:14:02;;;;;;;;;;;21.70;61.10;;;;;;5093470;28;20267;-70
2022/10/26 21:16:28;;;;;;;;;;;21.70;61.70;;;;;;5093149;28;19961;-70
2022/10/26 21:18:55;;;;;;;;;;;21.70;61.80;;;;;;5093311;28;19920;-70
2022/10/26 21:21:21;;;;;;;;;;;21.70;61.70;;;;;;5092588;28;20342;-70
2022/10/26 21:23:48;;;;;;;;;;;21.70;61.60;;;;;;5093587;28;19919;-70
2022/10/26 21:26:15;;;;;;;;;;;21.70;61.40;;;;;;5093132;28;19908;-70
2022/10/26 21:28:44;;;;;;;;;;;21.70;60.90;;;;;;5093295;28;19919;-70
2022/10/26 21:31:11;;;;;;;;;;;21.70;61.10;;;;;;5093001;28;20382;-70
2022/10/26 21:33:38;;;;;;;;;;;21.70;60.70;;;;;;5093128;28;19962;-70
2022/10/26 21:36:05;;;;;;;;;;;21.80;60.50;;;;;;5093185;28;19915;-70
2022/10/26 21:38:32;;;;;;;;;;;21.70;60.40;;;;;;5074967;28;19915;-70
2022/10/26 21:41:03;;;;;;;;;;;21.80;60.10;;;;;;5093005;28;20402;-70
2022/10/26 21:43:29;;;;;;;;;;;21.90;60.30;;;;;;5093159;28;19936;-70
2022/10/26 21:45:57;;;;;;;;;;;22.00;60.30;;;;;;5074861;28;19916;-70
2022/10/26 21:48:26;;;;;;;;;;;22.10;60.10;;;;;;5058133;28;19965;-71
2022/10/26 21:50:53;;;;;;;;;;;22.30;60.20;;;;;;5093077;28;19962;-71
2022/10/26 21:53:19;;;;;;;;;;;22.40;59.60;;;;;;5093589;28;20400;-70
2022/10/26 21:55:46;;;;;;;;;;;22.50;59.40;;;;;;5087158;28;19963;-70
2022/10/26 21:58:13;;;;;;;;;;;22.50;59.00;;;;;;5092436;28;20396;-70
2022/10/26 22:00:39;;;;;;;;;;;22.50;58.90;;;;;;5088861;28;19912;-70
2022/10/26 22:03:06;;;;;;;;;;;22.50;58.90;;;;;;5092141;28;20018;-70
2022/10/26 22:05:32;;;;;;;;;;;22.50;58.60;;;;;;5092596;28;19955;-70
2022/10/26 22:07:59;;;;;;;;;;;22.60;58.40;;;;;;5092695;28;19908;-70
2022/10/26 22:10:26;;;;;;;;;;;22.60;58.40;;;;;;5092420;28;19920;-71
2022/10/26 22:12:52;;;;;;;;;;;22.50;58.40;;;;;;5092273;28;19927;-70
2022/10/26 22:15:19;;;;;;;;;;;22.40;58.30;;;;;;5092463;28;19909;-70
2022/10/26 22:17:45;;;;;;;;;;;22.40;58.00;;;;;;5092349;28;20277;-70
2022/10/26 22:20:12;;;;;;;;;;;22.30;58.30;;;;;;5092513;28;19908;-70
2022/10/26 22:22:39;;;;;;;;;;;22.30;58.40;;;;;;5092203;28;19961;-70
2022/10/26 22:25:05;;;;;;;;;;;22.30;58.30;;;;;;5092490;28;20357;-72
2022/10/26 22:27:32;;;;;;;;;;;22.40;59.10;;;;;;5092161;28;19966;-70
2022/10/26 22:29:59;;;;;;;;;;;22.40;58.80;;;;;;5092346;28;19912;-70
2022/10/26 22:32:25;;;;;;;;;;;22.40;58.60;;;;;;5091961;28;19916;-71
2022/10/26 22:34:52;;;;;;;;;;;22.40;59.20;;;;;;5092442;28;20289;-70
2022/10/26 22:37:18;;;;;;;;;;;22.50;59.10;;;;;;5092320;28;19916;-70
2022/10/26 22:39:45;;;;;;;;;;;22.40;59.40;;;;;;5092031;28;19923;-71
2022/10/26 22:42:11;;;;;;;;;;;22.40;59.10;;;;;;5092688;28;20031;-70
